Time;durP1;ratioP1;P1;durP2;ratioP2;P2;SDS_P1;SDS_P2;PMS_P1;PMS_P2;Temp;Humidity;BMP_temperature;BMP_pressure;BME280_temperature;BME280_humidity;BME280_pressure;Samples;Min_cycle;Max_cycle;Signal;HPM_P1;HPM_P2
2023/01/22 00:03:16;;;;;;;5.85;4.03;;;1.20;99.90;;;;;;1948596;72;22171;-93
2023/01/22 00:08:57;;;;;;;6.28;4.15;;;1.20;99.90;;;;;;1948683;72;22197;-92
2023/01/22 00:11:49;;;;;;;7.70;4.60;;;1.20;99.90;;;;;;1917890;74;21113;-92
2023/01/22 00:14:42;;;;;;;6.78;4.53;;;1.30;99.90;;;;;;1894847;75;21141;-92
2023/01/22 00:17:36;;;;;;;5.83;4.42;;;1.40;99.90;;;;;;1906682;75;21119;-92
2023/01/22 00:23:16;;;;;;;6.37;4.35;;;1.20;99.90;;;;;;1948357;72;22159;-92
2023/01/22 00:26:11;;;;;;;6.12;4.05;;;1.20;99.90;;;;;;1914808;75;21181;-92
2023/01/22 00:29:04;;;;;;;6.47;4.42;;;1.20;99.90;;;;;;1897971;73;21219;-92
2023/01/22 00:31:56;;;;;;;6.83;4.20;;;1.20;99.90;;;;;;1937216;73;21090;-92
2023/01/22 00:37:37;;;;;;;6.50;4.95;;;1.10;99.90;;;;;;1940952;72;22174;-91
2023/01/22 00:40:30;;;;;;;8.78;6.20;;;1.10;99.90;;;;;;1903754;75;21114;-92
2023/01/22 00:43:22;;;;;;;7.33;5.62;;;1.10;99.90;;;;;;1893079;75;21036;-92
2023/01/22 00:46:16;;;;;;;7.05;4.80;;;1.20;99.90;;;;;;1883999;75;21122;-91
2023/01/22 00:52:00;;;;;;;5.53;4.40;;;1.20;99.90;;;;;;1952452;72;22333;-94
2023/01/22 01:13:42;;;;;;;6.08;2.87;;;1.10;99.90;;;;;;1955492;72;22126;-92
2023/01/22 01:16:34;;;;;;;7.17;4.97;;;1.10;99.90;;;;;;1913722;75;21090;-92
2023/01/22 01:19:26;;;;;;;7.55;4.50;;;1.20;99.90;;;;;;1915271;75;21095;-92
2023/01/22 01:22:19;;;;;;;7.20;5.10;;;1.10;99.90;;;;;;1900411;75;21146;-92
2023/01/22 01:28:57;;;;;;;8.45;5.25;;;1.10;99.90;;;;;;1995746;71;22226;-93
2023/01/22 01:31:52;;;;;;;7.60;5.28;;;1.10;99.90;;;;;;1954043;73;21122;-93
2023/01/22 01:34:42;;;;;;;8.48;5.92;;;1.10;99.90;;;;;;2035264;70;21129;-92
2023/01/22 01:37:37;;;;;;;6.72;4.72;;;1.10;99.90;;;;;;2032641;70;21105;-93
2023/01/22 01:40:28;;;;;;;9.23;6.10;;;1.10;99.90;;;;;;2061000;69;21031;-92
2023/01/22 01:43:20;;;;;;;7.62;5.85;;;1.00;99.90;;;;;;2033388;70;21077;-92
2023/01/22 01:46:18;;;;;;;8.60;6.08;;;1.00;99.90;;;;;;2033686;70;21000;-92
2023/01/22 01:49:23;;;;;;;7.08;5.08;;;1.00;99.90;;;;;;2070828;69;21086;-93
2023/01/22 02:08:36;;;;;;;9.53;6.45;;;1.00;99.90;;;;;;1942421;72;22324;-92
2023/01/22 02:11:29;;;;;;;6.45;4.67;;;1.00;99.90;;;;;;1924594;73;21120;-92
2023/01/22 02:46:07;;;;;;;6.92;5.12;;;0.90;99.90;;;;;;1953470;72;22142;-91
2023/01/22 02:48:59;;;;;;;5.03;4.30;;;1.00;99.90;;;;;;1889997;74;21421;-90
2023/01/22 02:51:52;;;;;;;6.58;4.85;;;0.90;99.90;;;;;;1888497;75;21195;-90
2023/01/22 02:54:44;;;;;;;6.20;4.53;;;0.90;99.90;;;;;;1906198;75;21192;-91
2023/01/22 02:57:36;;;;;;;8.08;5.10;;;0.90;99.90;;;;;;1898303;75;21082;-90
2023/01/22 03:00:28;;;;;;;7.60;4.95;;;0.90;99.90;;;;;;1907595;73;21130;-92
2023/01/22 03:03:20;;;;;;;6.37;4.28;;;1.00;99.90;;;;;;1912454;75;21087;-91
2023/01/22 03:06:14;;;;;;;6.60;4.30;;;0.90;99.90;;;;;;1901634;75;21112;-92
2023/01/22 03:09:12;;;;;;;10.95;4.70;;;0.90;99.90;;;;;;1907543;75;21143;-91
2023/01/22 03:12:04;;;;;;;6.22;4.17;;;0.80;99.90;;;;;;1902629;75;21178;-92
2023/01/22 03:32:10;;;;;;;4.70;3.17;;;0.80;99.90;;;;;;1974865;72;22118;-90
2023/01/22 03:35:03;;;;;;;6.12;4.10;;;0.90;99.90;;;;;;1917050;75;21087;-92
2023/01/22 03:37:57;;;;;;;6.03;3.92;;;0.90;99.90;;;;;;1929409;74;21043;-92
2023/01/22 03:48:59;;;;;;;6.97;3.80;;;0.90;99.90;;;;;;2037581;69;22232;-92
2023/01/22 03:51:51;;;;;;;5.35;3.92;;;0.90;99.90;;;;;;1983535;71;21070;-91
2023/01/22 04:11:30;;;;;;;5.12;3.42;;;0.60;99.90;;;;;;2008257;71;22133;-92
2023/01/22 04:14:22;;;;;;;6.42;3.90;;;0.50;99.90;;;;;;1955250;72;21086;-92
2023/01/22 04:21:13;;;;;;;7.92;4.67;;;0.50;99.90;;;;;;1964887;71;27934;-91
2023/01/22 04:24:09;;;;;;;6.50;4.08;;;0.60;99.90;;;;;;1965523;72;21683;-91
2023/01/22 04:27:01;;;;;;;5.30;3.60;;;0.60;99.90;;;;;;2037355;69;21086;-91
2023/01/22 04:29:53;;;;;;;5.83;3.80;;;0.50;99.90;;;;;;2034388;70;21035;-91
2023/01/22 04:32:46;;;;;;;7.58;3.50;;;0.50;99.90;;;;;;2034493;70;21074;-92
2023/01/22 04:35:47;;;;;;;5.37;4.03;;;0.50;99.90;;;;;;2014592;69;21074;-91
2023/01/22 04:42:03;;;;;;;5.12;3.98;;;0.40;99.90;;;;;;2028186;69;22117;-91
2023/01/22 04:47:48;;;;;;;5.95;4.10;;;0.50;99.90;;;;;;1963071;72;22203;-92
2023/01/22 04:50:41;;;;;;;5.78;3.85;;;0.40;99.90;;;;;;1905534;75;21162;-91
2023/01/22 04:53:35;;;;;;;7.00;3.77;;;0.40;99.90;;;;;;1916206;74;21154;-91
2023/01/22 04:56:28;;;;;;;7.20;3.77;;;0.40;99.90;;;;;;1904905;75;21086;-91
2023/01/22 05:02:04;;;;;;;6.97;4.17;;;0.30;99.90;;;;;;1944647;72;22096;-92
2023/01/22 05:04:56;;;;;;;6.20;3.85;;;0.20;99.90;;;;;;1884606;75;21232;-92
2023/01/22 05:07:48;;;;;;;5.37;3.75;;;0.20;99.90;;;;;;1893925;75;21109;-91
2023/01/22 05:10:39;;;;;;;5.47;3.77;;;0.10;99.90;;;;;;1910586;75;21107;-92
2023/01/22 05:13:33;;;;;;;5.50;4.08;;;0.10;99.90;;;;;;1891043;75;21458;-92
2023/01/22 05:16:24;;;;;;;5.95;4.15;;;0.10;99.90;;;;;;1893513;75;21200;-91
2023/01/22 05:19:17;;;;;;;7.92;4.40;;;0.20;99.90;;;;;;1894630;75;21116;-91
2023/01/22 05:22:09;;;;;;;6.40;4.00;;;0.20;99.90;;;;;;1905963;75;21126;-92
2023/01/22 05:25:01;;;;;;;6.37;4.05;;;0.10;99.90;;;;;;1896235;75;21105;-92
2023/01/22 05:27:54;;;;;;;8.20;4.42;;;0.10;99.90;;;;;;1909259;75;21015;-92
2023/01/22 05:30:50;;;;;;;5.90;3.83;;;0.10;99.90;;;;;;1906755;75;21101;-91
2023/01/22 05:33:59;;;;;;;7.42;4.20;;;0.10;99.90;;;;;;1906555;75;21081;-92
2023/01/22 05:42:20;;;;;;;6.05;3.85;;;0.00;99.90;;;;;;1942383;72;22112;-92
2023/01/22 05:45:13;;;;;;;5.97;4.28;;;0.00;99.90;;;;;;1887236;75;21036;-91
2023/01/22 05:48:09;;;;;;;5.62;4.10;;;0.00;99.90;;;;;;1902012;75;21087;-91
2023/01/22 05:51:18;;;;;;;5.47;4.33;;;0.00;99.90;;;;;;1905302;75;21108;-91
2023/01/22 05:57:03;;;;;;;5.65;4.20;;;-0.10;99.90;;;;;;1976922;72;22348;-90
2023/01/22 05:59:55;;;;;;;5.50;3.83;;;-0.10;99.90;;;;;;1929659;73;21409;-91
2023/01/22 06:02:55;;;;;;;5.65;3.70;;;-0.20;99.90;;;;;;1928419;73;21578;-93
2023/01/22 06:05:47;;;;;;;7.00;4.03;;;-0.20;99.90;;;;;;1923112;73;21216;-92
2023/01/22 06:08:40;;;;;;;5.03;3.70;;;-0.10;99.90;;;;;;1933148;73;21031;-92
2023/01/22 06:11:31;;;;;;;6.65;4.33;;;-0.20;99.90;;;;;;1933958;73;21696;-91
2023/01/22 06:14:23;;;;;;;5.25;3.50;;;-0.20;99.90;;;;;;1938381;73;21184;-93
2023/01/22 06:17:16;;;;;;;8.00;4.22;;;-0.20;99.90;;;;;;1926500;73;21185;-91
2023/01/22 06:20:12;;;;;;;7.28;4.15;;;-0.30;99.90;;;;;;1926790;73;21116;-91
2023/01/22 06:23:04;;;;;;;5.45;3.85;;;-0.20;99.90;;;;;;1931805;73;21143;-91
2023/01/22 06:26:03;;;;;;;6.45;3.83;;;-0.20;99.90;;;;;;1917710;73;21123;-91
2023/01/22 06:31:34;;;;;;;5.78;4.40;;;-0.10;99.90;;;;;;1947747;72;22162;-91
2023/01/22 06:34:27;;;;;;;6.67;4.17;;;-0.10;99.90;;;;;;1901880;75;21102;-91
2023/01/22 06:37:24;;;;;;;5.70;3.92;;;-0.20;99.90;;;;;;1893054;75;21118;-92
2023/01/22 06:40:16;;;;;;;6.90;4.00;;;-0.20;99.90;;;;;;1895607;73;21117;-91
2023/01/22 06:46:21;;;;;;;6.33;3.98;;;-0.20;99.90;;;;;;2064676;68;22187;-92
2023/01/22 06:52:10;;;;;;;6.25;4.25;;;-0.20;99.90;;;;;;1946312;72;22649;-91
2023/01/22 06:55:02;;;;;;;6.85;4.67;;;-0.20;99.90;;;;;;1911155;74;21155;-91
2023/01/22 06:57:57;;;;;;;8.00;4.90;;;-0.10;99.90;;;;;;1911672;74;21137;-91
2023/01/22 07:03:35;;;;;;;7.28;4.60;;;-0.20;99.90;;;;;;1945558;72;22264;-91
2023/01/22 07:09:42;;;;;;;6.62;4.80;;;-0.20;99.90;;;;;;2001287;71;22173;-92
2023/01/22 07:12:34;;;;;;;7.22;4.95;;;-0.10;99.90;;;;;;1968432;72;21019;-93
2023/01/22 07:15:33;;;;;;;7.67;5.28;;;-0.20;99.90;;;;;;2066883;69;21544;-93
2023/01/22 07:18:23;;;;;;;6.53;4.55;;;-0.20;99.90;;;;;;2059732;69;21066;-91
2023/01/22 07:21:14;;;;;;;5.80;4.25;;;-0.20;99.90;;;;;;2049389;69;21027;-91
2023/01/22 07:26:51;;;;;;;7.83;4.78;;;-0.10;99.90;;;;;;1949089;72;22194;-92
2023/01/22 07:32:25;;;;;;;4.97;4.47;;;0.00;99.90;;;;;;1963605;72;22174;-92
2023/01/22 07:35:17;;;;;;;6.83;4.67;;;0.10;99.90;;;;;;1905491;75;21121;-92
2023/01/22 07:40:48;;;;;;;6.10;4.53;;;0.10;99.90;;;;;;1931343;72;22176;-92
2023/01/22 07:43:39;;;;;;;5.72;4.60;;;0.10;99.90;;;;;;1894594;75;21316;-91
2023/01/22 07:51:53;;;;;;;6.75;5.00;;;0.00;99.90;;;;;;2043748;69;22111;-91
2023/01/22 07:58:05;;;;;;;6.12;4.53;;;0.00;99.90;;;;;;2101802;68;22515;-93
2023/01/22 08:03:50;;;;;;;7.58;4.47;;;0.00;99.90;;;;;;1943909;72;22301;-92
2023/01/22 08:06:43;;;;;;;6.72;4.60;;;0.10;99.90;;;;;;1918783;73;21038;-91
2023/01/22 08:15:39;;;;;;;5.85;3.87;;;0.10;99.90;;;;;;1979966;71;22181;-91
2023/01/22 08:18:39;;;;;;;6.55;4.45;;;0.10;99.90;;;;;;2010910;70;21097;-91
2023/01/22 08:21:30;;;;;;;9.33;4.45;;;0.10;99.90;;;;;;1980067;71;21186;-91
2023/01/22 08:27:33;;;;;;;4.75;3.10;;;0.10;99.90;;;;;;2006244;71;22154;-92
2023/01/22 08:30:26;;;;;;;4.45;3.08;;;0.10;99.90;;;;;;1962311;72;21139;-90
2023/01/22 08:33:19;;;;;;;4.47;2.95;;;0.20;99.90;;;;;;2033585;70;21569;-90
2023/01/22 08:40:03;;;;;;;3.95;2.58;;;0.10;99.90;;;;;;2073838;68;22174;-92
2023/01/22 08:47:12;;;;;;;5.35;3.20;;;0.00;99.90;;;;;;2026624;69;22174;-91
2023/01/22 08:52:49;;;;;;;6.30;4.33;;;0.10;99.90;;;;;;1927311;72;38310;-92
2023/01/22 08:55:41;;;;;;;9.53;6.35;;;0.20;99.90;;;;;;1917594;75;21514;-92
2023/01/22 08:58:33;;;;;;;8.10;5.60;;;0.20;99.90;;;;;;1936416;74;21106;-91
2023/01/22 09:01:25;;;;;;;5.53;4.03;;;0.20;99.90;;;;;;1932639;73;21096;-91
2023/01/22 09:07:36;;;;;;;6.60;4.03;;;0.20;99.90;;;;;;1994407;71;22194;-91
2023/01/22 09:10:28;;;;;;;5.28;3.95;;;0.20;99.90;;;;;;1964592;72;21172;-91
2023/01/22 09:13:20;;;;;;;7.17;3.87;;;0.20;99.90;;;;;;1985054;72;21040;-91
2023/01/22 09:16:11;;;;;;;5.87;3.98;;;0.20;99.90;;;;;;2036061;70;21140;-92
2023/01/22 09:19:14;;;;;;;7.15;4.53;;;0.20;99.90;;;;;;1986996;72;21098;-91
2023/01/22 09:22:06;;;;;;;6.53;4.25;;;0.30;99.90;;;;;;2057517;69;21061;-91
2023/01/22 09:25:04;;;;;;;6.17;3.85;;;0.30;99.90;;;;;;2042546;69;21061;-90
2023/01/22 09:28:03;;;;;;;7.22;4.55;;;0.30;99.90;;;;;;2034541;69;21192;-91
2023/01/22 21:31:47;;;;;;;12.85;9.40;;;1.80;99.90;;;;;;1970147;72;22126;-93
2023/01/22 21:34:41;;;;;;;13.32;9.70;;;1.70;99.90;;;;;;1905319;75;21209;-93
2023/01/22 21:37:32;;;;;;;11.95;9.18;;;1.70;99.90;;;;;;1905150;75;21107;-91
2023/01/22 21:40:25;;;;;;;11.75;8.25;;;1.70;99.90;;;;;;1907306;74;21170;-93
2023/01/22 21:46:26;;;;;;;12.70;8.75;;;1.70;99.90;;;;;;1920089;74;21098;-95
2023/01/22 21:49:21;;;;;;;10.85;8.53;;;1.70;99.90;;;;;;1905140;75;21160;-93
2023/01/22 21:56:27;;;;;;;12.75;8.75;;;1.70;99.90;;;;;;1981823;71;22155;-93
2023/01/22 21:59:19;;;;;;;12.45;8.70;;;1.70;99.90;;;;;;1953637;73;21190;-92
2023/01/22 22:02:16;;;;;;;11.10;8.05;;;1.70;99.90;;;;;;1988221;72;21116;-93
2023/01/22 22:09:10;;;;;;;11.30;8.00;;;1.70;99.90;;;;;;2035803;70;21096;-92
2023/01/22 22:12:15;;;;;;;10.95;8.25;;;1.70;99.90;;;;;;2033076;70;21126;-92
2023/01/22 22:15:10;;;;;;;10.25;6.90;;;1.80;99.90;;;;;;2033159;70;21040;-91
2023/01/22 22:18:04;;;;;;;11.10;7.15;;;1.80;99.90;;;;;;2031594;70;21573;-91
2023/01/22 22:25:32;;;;;;;9.63;7.03;;;1.70;99.90;;;;;;2072977;68;22183;-94
2023/01/22 22:28:45;;;;;;;11.33;7.45;;;1.70;99.90;;;;;;2025648;70;21093;-92
2023/01/22 22:32:37;;;;;;;12.60;8.08;;;1.70;99.90;;;;;;2045359;69;21180;-91
2023/01/22 22:35:51;;;;;;;11.85;7.70;;;1.60;99.90;;;;;;2033190;70;21078;-93
2023/01/22 22:38:43;;;;;;;10.43;7.42;;;1.60;99.90;;;;;;2032144;70;21139;-92
2023/01/22 22:41:38;;;;;;;11.80;7.70;;;1.60;99.90;;;;;;2032041;70;21078;-93
2023/01/22 22:44:44;;;;;;;10.68;8.00;;;1.60;99.90;;;;;;2055699;69;21560;-93
2023/01/22 22:47:46;;;;;;;13.25;7.50;;;1.60;99.90;;;;;;2034498;70;21027;-93
2023/01/22 22:50:39;;;;;;;9.98;7.47;;;1.70;99.90;;;;;;2031979;70;21071;-92
2023/01/22 22:53:31;;;;;;;10.03;7.80;;;1.70;99.90;;;;;;2030818;70;21212;-92
2023/01/22 22:56:23;;;;;;;9.78;6.75;;;1.70;99.90;;;;;;2042455;69;21051;-92
